Time;durP1;ratioP1;P1;durP2;ratioP2;P2;SDS_P1;SDS_P2;PMS_P1;PMS_P2;Temp;Humidity;BMP_temperature;BMP_pressure;BME280_temperature;BME280_humidity;BME280_pressure;Samples;Min_cycle;Max_cycle;Signal;HPM_P1;HPM_P2
2024/03/04 00:02:09;;;;;;;18.35;10.50;;;;;;;7.57;100.00;99844.41;6233786;22;20408;-87
2024/03/04 00:04:38;;;;;;;19.60;11.45;;;;;;;7.55;100.00;99849.63;6258151;22;20098;-86
2024/03/04 00:07:09;;;;;;;17.10;10.43;;;;;;;7.54;100.00;99849.66;6251878;22;20023;-86
2024/03/04 00:09:36;;;;;;;19.33;12.20;;;;;;;7.52;100.00;99852.28;6198342;22;20440;-92
2024/03/04 00:12:05;;;;;;;20.17;11.57;;;;;;;7.54;100.00;99849.66;6248098;22;20077;-86
2024/03/04 00:14:34;;;;;;;19.70;10.95;;;;;;;7.50;100.00;99846.22;6279308;22;20111;-87
2024/03/04 00:17:05;;;;;;;19.48;13.43;;;;;;;7.52;100.00;99856.63;6253019;22;20015;-87
2024/03/04 00:19:36;;;;;;;18.27;11.30;;;;;;;7.51;100.00;99853.16;6237897;22;20083;-94
2024/03/04 00:22:06;;;;;;;19.50;11.05;;;;;;;7.49;100.00;99857.50;6274319;22;20053;-87
2024/03/04 00:24:34;;;;;;;19.08;10.82;;;;;;;7.46;100.00;99847.13;6256940;22;20021;-88
2024/03/04 00:27:01;;;;;;;20.63;11.57;;;;;;;7.43;100.00;99849.75;6283801;22;20019;-89
2024/03/04 00:29:28;;;;;;;17.27;10.52;;;;;;;7.42;100.00;99850.63;6299118;22;20086;-90
2024/03/04 00:31:55;;;;;;;20.58;12.20;;;;;;;7.43;100.00;99854.94;6276029;22;20009;-86
2024/03/04 00:34:27;;;;;;;18.30;11.02;;;;;;;7.41;100.00;99854.97;6260636;22;20025;-88
2024/03/04 00:36:54;;;;;;;20.33;11.95;;;;;;;7.39;100.00;99853.25;6280743;22;20102;-86
2024/03/04 00:39:21;;;;;;;20.60;11.35;;;;;;;7.40;100.00;99847.16;6282259;22;20023;-88
2024/03/04 00:41:50;;;;;;;15.00;10.07;;;;;;;7.37;100.00;99855.03;6281149;22;20073;-86
2024/03/04 00:44:16;;;;;;;16.30;10.30;;;;;;;7.37;100.00;99855.03;6252944;22;20035;-89
2024/03/04 00:46:43;;;;;;;20.00;13.07;;;;;;;7.38;100.00;99855.00;6284232;22;20015;-87
2024/03/04 00:49:10;;;;;;;19.30;10.10;;;;;;;7.38;100.00;99865.41;6258476;22;20046;-87
2024/03/04 00:51:37;;;;;;;17.08;11.88;;;;;;;7.36;100.00;99858.50;6254104;22;20043;-88
2024/03/04 00:54:06;;;;;;;21.90;13.00;;;;;;;7.35;100.00;99865.44;6280726;22;20012;-85
2024/03/04 00:56:36;;;;;;;19.40;11.70;;;;;;;7.33;100.00;99864.59;6254860;22;20030;-86
2024/03/04 00:59:12;;;;;;;27.52;12.45;;;;;;;7.31;100.00;99863.72;6256014;22;20022;-86
2024/03/04 01:01:41;;;;;;;18.08;12.00;;;;;;;7.28;100.00;99862.00;6233082;22;20023;-86
2024/03/04 01:04:07;;;;;;;21.73;13.15;;;;;;;7.27;100.00;99862.91;6255124;22;20440;-86
2024/03/04 01:06:34;;;;;;;26.65;14.13;;;;;;;7.25;100.00;99863.81;6280986;22;20100;-89
2024/03/04 01:09:00;;;;;;;21.15;13.30;;;;;;;7.23;100.00;99866.41;6281494;22;20069;-84
2024/03/04 01:11:36;;;;;;;21.52;12.30;;;;;;;7.21;100.00;99864.69;6256761;22;20429;-90
2024/03/04 01:14:03;;;;;;;23.95;13.50;;;;;;;7.19;100.00;99863.84;6271119;22;20011;-86
2024/03/04 01:16:31;;;;;;;20.08;12.57;;;;;;;7.18;100.00;99870.78;6285078;22;20030;-84
2024/03/04 01:18:59;;;;;;;22.77;12.90;;;;;;;7.16;100.00;99869.94;6262854;22;20019;-89
2024/03/04 01:21:26;;;;;;;22.38;12.65;;;;;;;7.12;100.00;99874.28;6289751;22;20053;-85
2024/03/04 01:23:56;;;;;;;20.90;13.18;;;;;;;7.10;100.00;99876.06;6258076;22;20026;-86
2024/03/04 01:26:23;;;;;;;21.90;13.75;;;;;;;7.07;100.00;99870.84;6255550;22;20038;-87
2024/03/04 01:28:50;;;;;;;20.08;13.52;;;;;;;7.07;100.00;99870.84;6251941;22;20413;-93
2024/03/04 01:31:21;;;;;;;26.35;14.35;;;;;;;7.07;100.00;99878.66;6285472;22;20444;-90
2024/03/04 01:33:49;;;;;;;24.08;13.68;;;;;;;7.05;100.00;99872.63;6288771;22;20015;-88
2024/03/04 01:36:24;;;;;;;19.70;13.25;;;;;;;7.05;100.00;99879.56;6258193;22;20019;-87
2024/03/04 01:38:51;;;;;;;22.92;14.30;;;;;;;7.03;100.00;99876.13;6256317;22;20019;-86
2024/03/04 01:41:18;;;;;;;27.95;14.65;;;;;;;7.04;100.00;99875.22;6281340;22;20011;-85
2024/03/04 01:43:48;;;;;;;24.23;14.02;;;;;;;6.99;100.00;99872.66;6255331;22;20030;-90
2024/03/04 01:46:15;;;;;;;28.25;15.65;;;;;;;6.94;100.00;99877.88;6230079;22;20037;-87
2024/03/04 01:48:45;;;;;;;21.10;14.10;;;;;;;6.93;100.00;99877.91;6251727;22;20022;-85
2024/03/04 01:51:14;;;;;;;27.38;14.63;;;;;;;6.91;100.00;99877.03;6256437;22;20067;-86
2024/03/04 01:53:42;;;;;;;28.08;14.30;;;;;;;6.89;100.00;99884.84;6252562;22;20011;-86
2024/03/04 01:56:09;;;;;;;24.42;15.25;;;;;;;6.86;100.00;99892.69;6279546;22;20025;-84
2024/03/04 01:58:42;;;;;;;34.60;17.55;;;;;;;6.88;100.00;99890.94;6253345;22;20016;-85
2024/03/04 02:01:09;;;;;;;27.73;15.68;;;;;;;6.87;100.00;99888.34;6280387;22;20477;-85
2024/03/04 02:03:43;;;;;;;26.55;15.35;;;;;;;6.86;100.00;99889.25;6255590;22;20452;-86
2024/03/04 02:06:10;;;;;;;27.80;16.85;;;;;;;6.85;100.00;99890.94;6256522;22;20054;-86
2024/03/04 02:08:48;;;;;;;25.08;15.93;;;;;;;6.85;100.00;99900.50;6315877;22;20010;-94
2024/03/04 02:11:15;;;;;;;28.40;15.45;;;;;;;6.83;100.00;99907.44;6280674;22;20023;-93
2024/03/04 02:13:43;;;;;;;31.73;18.73;;;;;;;6.83;100.00;99907.44;6277046;22;20057;-95
2024/03/04 02:16:13;;;;;;;32.53;18.80;;;;;;;6.83;100.00;99910.03;6276614;22;20010;-94
2024/03/04 02:18:39;;;;;;;30.77;16.92;;;;;;;6.83;100.00;99904.84;6301778;22;20029;-95
2024/03/04 02:21:10;;;;;;;32.30;17.65;;;;;;;6.79;100.00;99912.69;6276492;22;20072;-94
2024/03/04 02:23:40;;;;;;;34.58;18.33;;;;;;;6.79;100.00;99915.28;6277048;22;20022;-94
2024/03/04 02:26:09;;;;;;;31.23;17.65;;;;;;;6.75;100.00;99917.88;6278628;22;20019;-92
2024/03/04 02:28:40;;;;;;;29.98;18.13;;;;;;;6.73;100.00;99917.91;6279080;22;20019;-93
2024/03/04 02:31:13;;;;;;;30.73;18.25;;;;;;;6.69;100.00;99916.19;6281738;22;20083;-94
2024/03/04 02:33:49;;;;;;;29.95;17.63;;;;;;;6.69;100.00;99915.31;6280174;22;20058;-92
2024/03/04 02:36:17;;;;;;;25.58;16.55;;;;;;;6.65;100.00;99922.28;6242708;22;20030;-87
2024/03/04 02:38:48;;;;;;;27.67;16.40;;;;;;;6.64;100.00;99923.16;6257001;22;20336;-87
2024/03/04 02:41:15;;;;;;;29.00;17.20;;;;;;;6.64;100.00;99925.75;6283323;22;20019;-89
2024/03/04 02:43:48;;;;;;;32.28;18.50;;;;;;;6.61;100.00;99934.44;6230877;22;20047;-85
2024/03/04 02:46:16;;;;;;;33.28;17.55;;;;;;;6.59;100.00;99933.56;6255221;22;20030;-85
2024/03/04 02:48:43;;;;;;;29.23;18.38;;;;;;;6.54;100.00;99939.66;6281489;22;20016;-85
2024/03/04 02:51:21;;;;;;;27.42;15.02;;;;;;;6.50;100.00;99943.16;6257491;22;20068;-87
2024/03/04 02:53:51;;;;;;;25.35;15.25;;;;;;;6.44;100.00;99946.63;6254716;22;20019;-87
2024/03/04 02:56:23;;;;;;;25.58;14.85;;;;;;;6.41;100.00;99947.53;6253555;22;20109;-91
2024/03/04 02:58:51;;;;;;;31.27;16.05;;;;;;;6.35;100.00;99947.53;6254159;22;20121;-85
2024/03/04 03:01:18;;;;;;;26.52;15.48;;;;;;;6.30;100.00;99951.88;6254694;22;20024;-86
2024/03/04 03:03:45;;;;;;;26.85;16.30;;;;;;;6.26;100.00;99952.75;6252785;22;20019;-87
2024/03/04 03:06:12;;;;;;;28.38;15.55;;;;;;;6.24;100.00;99954.50;6254862;22;20432;-88
2024/03/04 03:08:38;;;;;;;29.77;16.35;;;;;;;6.21;100.00;99952.75;6254364;22;20439;-86
2024/03/04 03:11:07;;;;;;;28.38;15.68;;;;;;;6.18;100.00;99965.78;6254656;22;20015;-85
2024/03/04 03:13:34;;;;;;;28.35;16.60;;;;;;;6.17;100.00;99964.03;6229469;22;20368;-89
2024/03/04 03:16:03;;;;;;;28.23;15.43;;;;;;;6.15;100.00;99973.56;6277760;22;20022;-88
2024/03/04 03:18:29;;;;;;;24.25;15.10;;;;;;;6.12;100.00;99978.78;6253897;22;20019;-87
2024/03/04 03:20:56;;;;;;;34.63;19.92;;;;;;;6.11;100.00;99974.44;6254924;22;20413;-90
2024/03/04 03:23:23;;;;;;;31.17;19.52;;;;;;;6.11;100.00;99977.91;6250559;22;20034;-86
2024/03/04 03:25:50;;;;;;;26.77;14.90;;;;;;;6.08;100.00;99985.69;6249909;22;20031;-86
2024/03/04 03:28:20;;;;;;;27.00;16.10;;;;;;;6.07;100.00;99981.38;6250601;22;20085;-86
2024/03/04 03:30:47;;;;;;;31.75;17.58;;;;;;;6.06;100.00;99981.38;6225808;22;20060;-87
2024/03/04 03:33:13;;;;;;;31.50;17.55;;;;;;;6.03;100.00;99983.97;6251995;22;20041;-85
2024/03/04 03:35:40;;;;;;;25.75;15.85;;;;;;;6.01;100.00;99991.78;6254490;22;20074;-84
2024/03/04 03:38:07;;;;;;;27.95;15.82;;;;;;;5.97;100.00;99987.41;6200480;22;20078;-87
2024/03/04 03:40:36;;;;;;;29.58;16.35;;;;;;;5.94;100.00;99985.69;6250385;22;20083;-86
2024/03/04 03:43:03;;;;;;;33.55;17.05;;;;;;;5.94;100.00;99995.22;6253924;22;20018;-93
2024/03/04 03:45:38;;;;;;;34.17;16.25;;;;;;;5.92;100.00;100000.41;6249170;22;20060;-93
2024/03/04 03:48:06;;;;;;;29.13;17.88;;;;;;;5.90;100.00;100001.28;6235377;22;20019;-87
2024/03/04 03:50:36;;;;;;;27.60;17.17;;;;;;;5.86;100.00;99994.34;6226185;22;20030;-86
2024/03/04 03:53:04;;;;;;;25.45;15.35;;;;;;;5.86;100.00;99996.97;6254875;22;20437;-84
2024/03/04 03:55:30;;;;;;;27.73;15.25;;;;;;;5.83;100.00;99996.94;6229872;22;20025;-85
2024/03/04 03:57:57;;;;;;;24.20;15.82;;;;;;;5.78;100.00;99995.22;6252546;22;20404;-86
2024/03/04 04:00:24;;;;;;;31.35;17.42;;;;;;;5.76;100.00;99993.47;6250880;22;20016;-86
2024/03/04 04:02:50;;;;;;;31.15;16.83;;;;;;;5.71;100.00;99996.09;6225490;22;20101;-86
2024/03/04 04:05:17;;;;;;;29.48;17.23;;;;;;;5.69;100.00;100003.00;6259719;22;20058;-87
2024/03/04 04:07:47;;;;;;;30.75;17.20;;;;;;;5.68;100.00;100008.19;6228561;22;20020;-86
2024/03/04 04:10:20;;;;;;;29.25;15.35;;;;;;;5.65;100.00;100013.41;6249330;22;20340;-86
2024/03/04 04:12:48;;;;;;;27.58;15.80;;;;;;;5.59;100.00;100012.53;6248540;22;20079;-86
2024/03/04 04:15:14;;;;;;;29.92;16.25;;;;;;;5.55;100.00;100012.50;6227178;22;20028;-86
2024/03/04 04:17:42;;;;;;;30.05;17.60;;;;;;;5.50;100.00;100015.13;6253204;22;20023;-86
2024/03/04 04:20:13;;;;;;;30.65;17.40;;;;;;;5.47;100.00;100021.16;6252393;22;20368;-86
2024/03/04 04:22:40;;;;;;;29.80;17.13;;;;;;;5.44;100.00;100028.94;6278243;22;20019;-90
2024/03/04 04:25:11;;;;;;;34.75;17.20;;;;;;;5.42;100.00;100037.59;6267786;22;20050;-87
2024/03/04 04:27:39;;;;;;;33.22;17.48;;;;;;;5.36;100.00;100037.56;6299172;22;20015;-91
2024/03/04 04:30:09;;;;;;;32.53;17.98;;;;;;;5.33;100.00;100041.00;6276721;22;20019;-91
2024/03/04 04:32:36;;;;;;;29.98;15.50;;;;;;;5.33;100.00;100045.34;6283281;22;20019;-87
2024/03/04 04:35:04;;;;;;;29.33;15.70;;;;;;;5.29;100.00;100045.34;6254389;22;20046;-85
2024/03/04 04:37:31;;;;;;;28.48;16.42;;;;;;;5.27;100.00;100062.63;6253737;22;20015;-88
2024/03/04 04:39:58;;;;;;;26.58;16.52;;;;;;;5.24;100.00;100059.16;6257550;22;20023;-87
2024/03/04 04:42:25;;;;;;;29.58;16.15;;;;;;;5.24;100.00;100061.75;6257710;22;20019;-87
2024/03/04 04:44:52;;;;;;;29.00;16.77;;;;;;;5.22;100.00;100066.94;6260571;22;20432;-85
2024/03/04 04:47:23;;;;;;;27.92;16.42;;;;;;;5.20;100.00;100058.31;6313654;22;20317;-85
2024/03/04 04:49:51;;;;;;;27.98;17.88;;;;;;;5.17;100.00;100062.59;6260056;22;20020;-85
2024/03/04 04:52:17;;;;;;;27.95;16.58;;;;;;;5.17;100.00;100065.19;6259862;22;20029;-85
2024/03/04 04:54:46;;;;;;;34.20;17.15;;;;;;;5.13;100.00;100072.94;6259424;22;20506;-85
2024/03/04 04:57:15;;;;;;;35.13;19.20;;;;;;;5.11;100.00;100079.88;6238067;22;20019;-87
2024/03/04 04:59:44;;;;;;;28.15;16.45;;;;;;;5.11;100.00;100077.28;6287301;22;20067;-87
2024/03/04 05:02:11;;;;;;;27.98;16.17;;;;;;;5.07;100.00;100072.94;6258204;22;20302;-86
2024/03/04 05:04:39;;;;;;;31.05;16.42;;;;;;;5.06;100.00;100068.63;6284670;22;20089;-86
2024/03/04 05:07:06;;;;;;;27.65;15.63;;;;;;;5.05;100.00;100074.66;6258889;22;20019;-85
2024/03/04 05:09:34;;;;;;;30.05;16.73;;;;;;;5.06;100.00;100083.28;6284129;22;20015;-85
2024/03/04 05:12:02;;;;;;;31.35;17.38;;;;;;;5.06;100.00;100085.88;6259041;22;20037;-86
2024/03/04 05:14:29;;;;;;;31.90;18.60;;;;;;;5.05;100.00;100087.63;6257692;22;20026;-87
2024/03/04 05:16:56;;;;;;;27.00;15.35;;;;;;;5.04;100.00;100088.47;6257807;22;20395;-89
2024/03/04 05:19:25;;;;;;;32.90;18.08;;;;;;;5.05;100.00;100090.22;6285454;22;20106;-85
2024/03/04 05:21:52;;;;;;;27.10;16.25;;;;;;;5.04;100.00;100096.25;6261667;22;20106;-85
2024/03/04 05:24:19;;;;;;;29.63;16.52;;;;;;;5.06;100.00;100101.47;6284955;22;20023;-94
2024/03/04 05:26:46;;;;;;;31.63;17.63;;;;;;;5.07;100.00;100108.38;6270099;22;20015;-89
2024/03/04 05:29:14;;;;;;;34.42;16.33;;;;;;;5.04;100.00;100106.63;6266709;22;20094;-87
2024/03/04 05:31:57;;;;;;;31.10;18.20;;;;;;;5.03;100.00;100097.16;6291229;22;20015;-87
2024/03/04 05:34:26;;;;;;;34.40;18.35;;;;;;;5.02;100.00;100097.13;6286609;22;20021;-86
2024/03/04 05:36:56;;;;;;;35.72;17.90;;;;;;;5.03;100.00;100097.16;6285111;22;20019;-88
2024/03/04 05:39:31;;;;;;;35.95;18.75;;;;;;;5.06;100.00;100102.34;6261345;22;20448;-88
2024/03/04 05:42:00;;;;;;;35.50;20.42;;;;;;;5.10;100.00;100093.72;6264451;22;20430;-87
2024/03/04 05:44:29;;;;;;;38.35;19.25;;;;;;;5.12;100.00;100093.72;6262062;22;20019;-86
2024/03/04 05:47:15;;;;;;;30.35;17.10;;;;;;;5.11;100.00;100097.16;6290021;22;20041;-87
2024/03/04 05:49:42;;;;;;;32.13;17.23;;;;;;;5.10;100.00;100106.69;6234320;22;20479;-86
2024/03/04 05:52:13;;;;;;;41.95;20.20;;;;;;;5.10;100.00;100122.25;6284653;22;20160;-87
2024/03/04 05:54:40;;;;;;;35.35;19.15;;;;;;;5.16;100.00;100120.53;6284594;22;20019;-86
2024/03/04 05:57:07;;;;;;;35.45;20.45;;;;;;;5.19;100.00;100124.03;6259504;22;20015;-87
2024/03/04 05:59:35;;;;;;;43.03;21.15;;;;;;;5.26;100.00;100127.50;6260448;22;20045;-87
2024/03/04 06:02:28;;;;;;;36.05;20.20;;;;;;;5.33;100.00;100136.19;6280821;22;20034;-87
2024/03/04 06:04:55;;;;;;;40.15;20.42;;;;;;;5.33;100.00;100139.63;6274474;22;20019;-87
2024/03/04 06:07:23;;;;;;;33.05;18.02;;;;;;;5.37;100.00;100140.53;6255650;22;20019;-89
2024/03/04 06:09:49;;;;;;;30.63;18.27;;;;;;;5.42;100.00;100144.91;6260219;22;20332;-87
2024/03/04 06:12:17;;;;;;;36.17;18.92;;;;;;;5.46;100.00;100136.25;6262752;22;20022;-90
2024/03/04 06:14:50;;;;;;;36.25;20.45;;;;;;;5.47;100.00;100142.28;6265441;22;20011;-89
2024/03/04 06:17:22;;;;;;;37.05;19.27;;;;;;;5.46;100.00;100145.75;6273776;22;20023;-95
2024/03/04 06:19:49;;;;;;;36.28;17.55;;;;;;;5.47;100.00;100142.28;6302696;22;20007;-94
2024/03/04 06:22:19;;;;;;;35.70;20.20;;;;;;;5.44;100.00;100148.34;6254187;22;20022;-91
2024/03/04 06:24:47;;;;;;;42.20;21.33;;;;;;;5.46;100.00;100145.75;6305486;22;20019;-92
2024/03/04 06:27:19;;;;;;;41.05;21.10;;;;;;;5.47;100.00;100150.97;6272482;22;20037;-88
2024/03/04 06:29:46;;;;;;;34.33;20.17;;;;;;;5.46;100.00;100154.41;6264468;22;20080;-87
2024/03/04 06:32:13;;;;;;;41.25;21.15;;;;;;;5.46;100.00;100154.41;6288813;22;20432;-87
2024/03/04 06:34:40;;;;;;;36.85;20.52;;;;;;;5.51;100.00;100164.81;6268514;22;20016;-94
2024/03/04 06:37:08;;;;;;;39.95;20.92;;;;;;;5.47;100.00;100168.25;6294551;22;20019;-87
2024/03/04 06:39:38;;;;;;;40.65;20.08;;;;;;;5.50;100.00;100167.41;6288013;22;20069;-87
2024/03/04 06:42:09;;;;;;;40.58;21.63;;;;;;;5.52;100.00;100174.34;6284511;22;20011;-94
2024/03/04 06:44:45;;;;;;;43.33;21.15;;;;;;;5.56;100.00;100172.63;6262161;22;20019;-87
2024/03/04 06:47:16;;;;;;;40.70;20.33;;;;;;;5.51;100.00;100177.78;6288319;22;20019;-87
2024/03/04 06:49:45;;;;;;;45.42;21.17;;;;;;;5.44;100.00;100171.72;6290388;22;20015;-88
2024/03/04 06:52:17;;;;;;;40.05;20.63;;;;;;;5.47;100.00;100176.94;6300387;22;20034;-90
2024/03/04 06:54:44;;;;;;;41.08;22.27;;;;;;;5.49;100.00;100171.75;6281605;22;20041;-95
2024/03/04 06:57:14;;;;;;;41.13;21.40;;;;;;;5.58;100.00;100183.88;6280574;22;20003;-94
2024/03/04 06:59:44;;;;;;;39.58;21.05;;;;;;;5.52;100.00;100182.13;6281029;22;20018;-94
2024/03/04 07:02:13;;;;;;;37.72;20.92;;;;;;;5.58;100.00;100183.88;6303447;22;20144;-87
2024/03/04 07:07:35;;;;;;;40.67;21.00;;;;;;;5.70;100.00;100188.28;6268792;22;20019;-87
2024/03/04 07:10:21;;;;;;;39.78;19.08;;;;;;;6.13;100.00;100191.84;6293101;22;20409;-87
2024/03/04 07:12:53;;;;;;;39.45;20.08;;;;;;;6.33;100.00;100190.16;6266272;22;20038;-87
2024/03/04 07:15:42;;;;;;;31.40;19.27;;;;;;;7.02;100.00;100194.47;6293469;22;20031;-85
2024/03/04 07:18:17;;;;;;;33.25;20.45;;;;;;;7.15;100.00;100190.09;6294538;22;20046;-86
2024/03/04 07:20:48;;;;;;;32.80;19.08;;;;;;;7.39;100.00;100194.38;6298241;22;20034;-85
2024/03/04 07:23:20;;;;;;;31.52;18.10;;;;;;;7.50;100.00;100200.41;6242684;22;20016;-85
2024/03/04 07:25:50;;;;;;;31.73;18.77;;;;;;;7.41;100.00;100205.66;6240902;22;20015;-84
2024/03/04 07:28:21;;;;;;;36.10;19.65;;;;;;;7.36;100.00;100210.00;6262444;22;20019;-86
2024/03/04 07:30:49;;;;;;;32.65;18.60;;;;;;;7.25;100.00;100205.69;6237580;22;20065;-86
2024/03/04 07:33:21;;;;;;;32.75;18.48;;;;;;;7.09;100.00;100210.06;6212880;22;20054;-86
2024/03/04 07:35:50;;;;;;;35.08;20.92;;;;;;;6.76;100.00;100214.44;6268376;22;20012;-85
2024/03/04 07:38:17;;;;;;;36.80;20.67;;;;;;;6.48;100.00;100217.91;6255955;22;20079;-83
2024/03/04 07:40:46;;;;;;;40.47;21.60;;;;;;;6.24;100.00;100217.84;6255778;22;20019;-84
2024/03/04 07:43:23;;;;;;;32.15;18.45;;;;;;;6.14;100.00;100234.31;6234184;22;20588;-85
2024/03/04 07:45:51;;;;;;;35.67;20.52;;;;;;;6.21;100.00;100228.25;6255707;22;20087;-85
2024/03/04 07:48:18;;;;;;;37.72;20.95;;;;;;;6.38;100.00;100227.44;6253792;22;20390;-85
2024/03/04 07:50:46;;;;;;;39.90;20.40;;;;;;;6.35;100.00;100227.41;6232953;22;20020;-85
2024/03/04 07:53:17;;;;;;;41.25;21.38;;;;;;;6.51;100.00;100229.16;6229782;22;20073;-83
2024/03/04 07:55:45;;;;;;;41.50;20.40;;;;;;;6.62;100.00;100227.47;6209006;22;20019;-84
2024/03/04 07:58:11;;;;;;;35.45;18.40;;;;;;;6.74;100.00;100238.72;6234717;22;20042;-85
2024/03/04 08:00:43;;;;;;;35.78;17.85;;;;;;;6.72;100.00;100236.09;6237673;22;20030;-84
2024/03/04 08:03:12;;;;;;;38.15;17.98;;;;;;;6.97;100.00;100230.91;6237872;22;20234;-84
2024/03/04 08:05:39;;;;;;;30.60;19.25;;;;;;;6.97;100.00;100233.50;6234254;22;20027;-84
2024/03/04 08:08:08;;;;;;;28.98;17.98;;;;;;;6.93;100.00;100244.78;6235531;22;20039;-84
2024/03/04 08:10:38;;;;;;;34.13;19.60;;;;;;;7.02;100.00;100244.78;6260982;22;20026;-84
2024/03/04 08:13:05;;;;;;;30.13;18.08;;;;;;;7.10;100.00;100244.75;6237230;22;20079;-85
2024/03/04 08:15:35;;;;;;;37.65;19.05;;;;;;;7.29;100.00;100248.22;6242608;22;20011;-83
2024/03/04 08:18:02;;;;;;;56.67;22.67;;;;;;;7.17;100.00;100259.53;6258360;22;20028;-84
2024/03/04 08:20:31;;;;;;;47.60;19.25;;;;;;;7.12;100.00;100258.66;6261004;22;20020;-84
2024/03/04 08:22:58;;;;;;;39.67;20.25;;;;;;;7.05;100.00;100255.19;6232724;22;20387;-85
2024/03/04 08:25:25;;;;;;;39.30;20.20;;;;;;;7.03;100.00;100251.72;6256063;22;20051;-84
2024/03/04 08:27:52;;;;;;;37.13;20.35;;;;;;;7.15;100.00;100249.97;6230830;22;20023;-84
2024/03/04 08:30:20;;;;;;;40.05;20.55;;;;;;;7.25;100.00;100262.97;6256385;22;20019;-85
2024/03/04 08:32:53;;;;;;;41.17;20.90;;;;;;;7.41;100.00;100269.00;6256243;22;20449;-85
2024/03/04 08:35:20;;;;;;;;;;;;;;;7.44;100.00;100261.22;6260164;22;20036;-84
2024/03/04 08:37:47;;;;;;;49.38;23.33;;;;;;;7.36;100.00;100264.69;6231103;22;19921;-84
2024/03/04 08:40:14;;;;;;;59.25;26.67;;;;;;;7.34;100.00;100269.91;6237025;22;20030;-84
2024/03/04 08:42:41;;;;;;;60.45;27.40;;;;;;;7.50;100.00;100265.53;6260626;22;20078;-86
2024/03/04 08:45:09;;;;;;;61.55;28.02;;;;;;;7.45;100.00;100267.28;6227236;22;20088;-83
2024/03/04 08:47:36;;;;;;;58.35;27.13;;;;;;;7.58;100.00;100262.91;6250293;22;20042;-85
2024/03/04 08:50:03;;;;;;;62.40;26.45;;;;;;;7.80;100.00;100268.91;6228528;22;20051;-85
2024/03/04 08:52:30;;;;;;;56.42;26.33;;;;;;;8.11;100.00;100267.03;6228927;22;20030;-83
2024/03/04 08:54:56;;;;;;;61.55;27.40;;;;;;;8.19;100.00;100268.75;6251165;22;20097;-85
2024/03/04 08:57:23;;;;;;;58.53;25.40;;;;;;;8.19;100.00;100267.00;6254086;22;20034;-85
2024/03/04 08:59:50;;;;;;;59.75;27.00;;;;;;;8.35;100.00;100269.50;6251564;22;20028;-84
2024/03/04 09:02:17;;;;;;;59.75;27.52;;;;;;;8.49;100.00;100274.69;6252609;22;20026;-83
2024/03/04 09:04:47;;;;;;;64.28;28.95;;;;;;;8.71;100.00;100267.56;6252653;22;20108;-83
2024/03/04 09:07:15;;;;;;;66.68;29.27;;;;;;;8.89;100.00;100276.97;6227832;22;20023;-85
2024/03/04 09:09:43;;;;;;;61.22;28.88;;;;;;;8.87;100.00;100276.16;6227538;22;20496;-85
2024/03/04 09:12:10;;;;;;;63.72;28.23;;;;;;;8.83;100.00;100285.72;6225371;22;20075;-84
2024/03/04 09:14:37;;;;;;;59.22;29.67;;;;;;;8.78;100.00;100277.94;6276595;22;20323;-84
2024/03/04 09:17:03;;;;;;;60.70;28.48;;;;;;;8.96;100.00;100276.06;6224102;22;20019;-84
2024/03/04 09:19:30;;;;;;;60.17;29.35;;;;;;;9.01;100.00;100273.41;6226956;22;20054;-83
2024/03/04 09:21:57;;;;;;;50.95;27.65;;;;;;;9.14;100.00;100272.44;6225962;22;20421;-84
2024/03/04 09:24:24;;;;;;;54.20;25.00;;;;;;;9.22;100.00;100272.34;6252325;22;20105;-83
2024/03/04 09:26:50;;;;;;;44.90;23.65;;;;;;;9.07;100.00;100271.63;6249506;22;20066;-84
2024/03/04 09:29:17;;;;;;;49.92;23.92;;;;;;;9.06;100.00;100275.09;6249403;22;20106;-82
2024/03/04 09:31:47;;;;;;;50.17;26.83;;;;;;;9.06;100.00;100282.94;6224701;22;20032;-83
2024/03/04 09:34:13;;;;;;;52.67;27.30;;;;;;;8.91;100.00;100280.44;6251431;22;20024;-84
2024/03/04 09:36:40;;;;;;;54.35;25.65;;;;;;;8.41;100.00;100288.59;6252087;22;20003;-85
2024/03/04 09:39:08;;;;;;;48.33;25.48;;;;;;;8.37;100.00;100292.09;6224784;22;20030;-83
2024/03/04 09:41:37;;;;;;;53.90;25.40;;;;;;;8.32;100.00;100293.88;6251395;22;20073;-83
2024/03/04 09:44:07;;;;;;;53.28;25.17;;;;;;;8.44;100.00;100298.16;6201357;22;20048;-83
2024/03/04 09:46:38;;;;;;;52.13;25.35;;;;;;;8.58;100.00;100301.56;6251166;22;20012;-82
2024/03/04 09:49:08;;;;;;;45.90;26.15;;;;;;;8.65;100.00;100304.16;6226494;22;20095;-83
2024/03/04 09:51:35;;;;;;;39.80;22.38;;;;;;;8.69;100.00;100306.69;6227717;22;20037;-85
2024/03/04 09:54:02;;;;;;;43.97;24.80;;;;;;;8.67;100.00;100316.31;6226141;22;20030;-84
2024/03/04 09:56:29;;;;;;;44.15;25.05;;;;;;;8.67;100.00;100308.47;6226719;22;20073;-84
2024/03/04 09:58:56;;;;;;;45.60;25.00;;;;;;;8.91;100.00;100312.63;6250439;22;20003;-83
2024/03/04 10:01:24;;;;;;;47.25;22.27;;;;;;;9.13;100.00;100304.63;6227823;22;20069;-85
2024/03/04 10:03:52;;;;;;;43.90;23.52;;;;;;;9.40;100.00;100302.66;6228165;22;20689;-82
2024/03/04 10:06:18;;;;;;;41.03;23.15;;;;;;;9.57;100.00;100298.13;6256740;22;20015;-83
2024/03/04 10:08:45;;;;;;;48.78;22.58;;;;;;;9.86;100.00;100290.84;6205608;22;20020;-84
2024/03/04 10:11:12;;;;;;;43.95;23.73;;;;;;;9.90;100.00;100295.16;6255684;22;20054;-84
2024/03/04 10:13:40;;;;;;;43.47;23.17;;;;;;;9.90;100.00;100301.22;6257366;22;20020;-82
2024/03/04 10:16:09;;;;;;;42.55;23.38;;;;;;;9.79;100.00;100307.47;6251395;23;20079;-83
2024/03/04 10:18:36;;;;;;;42.25;23.95;;;;;;;9.54;100.00;100319.06;6202222;23;20033;-83
2024/03/04 10:21:04;;;;;;;50.05;23.60;;;;;;;9.54;100.00;100319.06;6201062;23;20083;-84
2024/03/04 10:23:31;;;;;;;47.35;26.17;;;;;;;9.49;100.00;100320.88;6203206;23;20035;-85
2024/03/04 10:26:15;;;;;;;41.78;24.98;;;;;;;9.48;100.00;100326.97;6199470;23;20038;-83
2024/03/04 10:28:42;;;;;;;47.50;25.63;;;;;;;9.35;100.00;100327.97;6224734;23;20067;-84
2024/03/04 10:31:11;;;;;;;46.47;26.20;;;;;;;9.25;100.00;100327.16;6200422;23;20032;-85
2024/03/04 10:33:50;;;;;;;47.85;25.98;;;;;;;9.21;100.00;100334.16;6202892;23;20028;-83
2024/03/04 10:36:19;;;;;;;50.25;26.30;;;;;;;9.09;100.00;100339.50;6225822;23;20016;-84
2024/03/04 10:38:49;;;;;;;54.60;29.15;;;;;;;9.03;100.00;100331.69;6224279;23;20028;-85
2024/03/04 10:41:23;;;;;;;54.75;28.80;;;;;;;9.16;100.00;100335.94;6202242;23;20024;-84
2024/03/04 10:43:52;;;;;;;58.25;29.50;;;;;;;9.24;100.00;100336.75;6198526;23;20226;-86
2024/03/04 10:46:21;;;;;;;53.78;28.00;;;;;;;9.32;100.00;100328.84;6200162;23;20031;-84
2024/03/04 10:48:50;;;;;;;45.58;26.33;;;;;;;9.42;100.00;100334.84;6202378;23;20043;-84
2024/03/04 10:51:19;;;;;;;51.05;27.50;;;;;;;9.48;100.00;100341.75;6202899;23;20028;-83
2024/03/04 10:53:46;;;;;;;43.53;26.10;;;;;;;9.48;100.00;100341.75;6221763;23;20458;-84
2024/03/04 10:56:17;;;;;;;48.25;27.55;;;;;;;9.70;100.00;100330.22;6200373;23;20090;-85
2024/03/04 10:58:45;;;;;;;43.10;25.33;;;;;;;9.70;100.00;100339.78;6250310;23;20016;-85
2024/03/04 11:01:18;;;;;;;40.75;24.02;;;;;;;9.72;100.00;100332.81;6200334;23;20342;-83
2024/03/04 11:03:58;;;;;;;46.22;26.92;;;;;;;9.83;100.00;100330.06;6226465;23;20016;-84
2024/03/04 11:06:31;;;;;;;45.58;24.60;;;;;;;9.73;100.00;100334.56;6224143;23;20032;-84
2024/03/04 11:09:04;;;;;;;42.63;25.73;;;;;;;9.87;100.00;100331.81;6200646;23;20043;-84
2024/03/04 11:11:42;;;;;;;53.95;29.20;;;;;;;9.80;100.00;100340.56;6224563;23;20020;-85
2024/03/04 11:14:23;;;;;;;47.90;27.20;;;;;;;9.81;100.00;100337.94;6199107;23;20051;-85
2024/03/04 11:17:00;;;;;;;38.28;25.40;;;;;;;9.98;100.00;100339.50;6207533;23;20020;-85
2024/03/04 11:19:56;;;;;;;42.05;25.52;;;;;;;10.05;100.00;100336.81;6202262;23;20031;-85
2024/03/04 11:22:29;;;;;;;44.08;25.42;;;;;;;10.25;100.00;100338.31;6231263;23;20022;-85
2024/03/04 11:24:57;;;;;;;46.97;25.65;;;;;;;10.49;100.00;100337.13;6194457;23;20025;-83